Time,TemperatureF,DewpointF,PressureIn,WindDirection,WindDirectionDegrees,WindSpeedMPH,WindSpeedGustMPH,Humidity,HourlyPrecipIn,Conditions,Clouds,dailyrainin,SoftwareType,DateUTC
2013-02-17 00:04:00,42.3,30.6,29.29,NNW,341,0.0,0.0,63,0.00,,---,0.00,VWS V14.01,2013-02-17 08:04:00,
2013-02-17 00:09:00,43.3,32.4,29.29,NNW,341,0.0,0.0,65,0.00,,---,0.00,VWS V14.01,2013-02-17 08:09:00,
2013-02-17 00:14:00,43.3,32.0,29.29,NNW,341,0.0,0.0,64,0.00,,---,0.00,VWS V14.01,2013-02-17 08:14:00,
2013-02-17 00:20:00,42.1,29.6,29.29,NNW,341,0.0,0.0,61,0.00,,---,0.00,VWS V14.01,2013-02-17 08:20:00,
2013-02-17 00:26:00,42.3,30.2,29.29,NNE,26,0.0,0.0,62,0.00,,---,0.00,VWS V14.01,2013-02-17 08:26:00,
2013-02-17 00:31:00,42.8,31.5,29.29,ESE,106,4.0,4.9,64,0.00,,---,0.00,VWS V14.01,2013-02-17 08:31:00,
2013-02-17 00:36:00,43.2,31.0,29.29,ESE,106,0.0,0.0,62,0.00,,---,0.00,VWS V14.01,2013-02-17 08:36:00,
2013-02-17 00:41:00,43.7,31.5,29.29,ESE,106,0.0,0.0,62,0.00,,---,0.00,VWS V14.01,2013-02-17 08:41:00,
2013-02-17 00:46:00,44.1,30.2,29.29,ESE,110,3.6,3.6,58,0.00,,---,0.00,VWS V14.01,2013-02-17 08:46:00,
2013-02-17 00:51:00,44.2,28.7,29.29,SE,138,4.0,4.9,54,0.00,,---,0.00,VWS V14.01,2013-02-17 08:51:00,
2013-02-17 00:56:00,45.3,28.3,29.29,SE,136,4.5,4.9,51,0.00,,---,0.00,VWS V14.01,2013-02-17 08:56:00,
2013-02-17 01:01:00,45.9,26.8,29.29,SE,131,4.0,4.5,47,0.00,,---,0.00,VWS V14.01,2013-02-17 09:01:00,
2013-02-17 01:07:00,45.5,24.3,29.29,SE,131,2.7,3.6,43,0.00,,---,0.00,VWS V14.01,2013-02-17 09:07:00,
2013-02-17 01:12:00,45.7,25.0,29.29,SE,146,3.6,3.6,44,0.00,,---,0.00,VWS V14.01,2013-02-17 09:12:00,
2013-02-17 01:17:00,44.8,23.7,29.29,SE,146,0.0,0.0,43,0.00,,---,0.00,VWS V14.01,2013-02-17 09:17:00,
2013-02-17 01:22:00,43.2,21.6,29.29,SE,146,0.0,0.0,42,0.00,,---,0.00,VWS V14.01,2013-02-17 09:22:00,
2013-02-17 01:27:00,41.7,20.9,29.29,SE,146,0.0,0.0,43,0.00,,---,0.00,VWS V14.01,2013-02-17 09:27:00,
2013-02-17 01:32:00,41.9,23.7,29.29,SE,131,3.1,3.6,48,0.00,,---,0.00,VWS V14.01,2013-02-17 09:32:00,
2013-02-17 01:37:00,43.3,29.1,29.29,ESE,118,2.7,3.6,57,0.00,,---,0.00,VWS V14.01,2013-02-17 09:37:00,
2013-02-17 01:42:00,44.2,30.4,29.29,ESE,118,0.0,3.1,58,0.00,,---,0.00,VWS V14.01,2013-02-17 09:42:00,
2013-02-17 01:47:00,44.2,29.5,29.29,ESE,119,4.5,4.9,56,0.00,,---,0.00,VWS V14.01,2013-02-17 09:47:00,
2013-02-17 01:52:00,45.1,30.0,29.29,SE,134,3.6,4.9,55,0.00,,---,0.00,VWS V14.01,2013-02-17 09:52:00,
2013-02-17 01:57:00,44.4,27.9,29.29,SE,134,0.0,0.0,52,0.00,,---,0.00,VWS V14.01,2013-02-17 09:57:00,
2013-02-17 02:02:00,42.4,24.6,29.29,SE,126,0.0,0.0,49,0.00,,---,0.00,VWS V14.01,2013-02-17 10:02:00,
2013-02-17 02:07:00,41.2,23.5,29.29,SE,126,0.0,0.0,49,0.00,,---,0.00,VWS V14.01,2013-02-17 10:07:00,
2013-02-17 02:12:00,39.7,22.2,29.29,SE,126,0.0,0.0,49,0.00,,---,0.00,VWS V14.01,2013-02-17 10:12:00,
2013-02-17 02:17:00,39.0,21.5,29.29,SE,126,0.0,0.0,49,0.00,,---,0.00,VWS V14.01,2013-02-17 10:17:00,
2013-02-17 02:22:00,39.2,23.1,29.29,SE,126,0.0,0.0,52,0.00,,---,0.00,VWS V14.01,2013-02-17 10:22:00,
2013-02-17 02:27:00,39.9,25.5,29.29,SE,126,0.0,0.0,56,0.00,,---,0.00,VWS V14.01,2013-02-17 10:27:00,
2013-02-17 02:32:00,40.5,28.5,29.29,SE,126,0.0,0.0,62,0.00,,---,0.00,VWS V14.01,2013-02-17 10:32:00,
2013-02-17 02:37:00,40.6,29.8,29.29,SE,126,0.0,0.0,65,0.00,,---,0.00,VWS V14.01,2013-02-17 10:37:00,
2013-02-17 02:42:00,41.5,31.8,29.29,SE,126,4.5,4.5,68,0.00,,---,0.00,VWS V14.01,2013-02-17 10:42:00,
2013-02-17 02:47:00,41.5,32.1,29.29,SSE,147,4.5,4.5,69,0.00,,---,0.00,VWS V14.01,2013-02-17 10:47:00,
2013-02-17 02:52:00,42.1,32.7,29.29,SSE,158,4.9,4.9,69,0.00,,---,0.00,VWS V14.01,2013-02-17 10:52:00,
2013-02-17 02:57:00,42.3,32.5,29.29,SSE,156,4.5,5.4,68,0.00,,---,0.00,VWS V14.01,2013-02-17 10:57:00,
2013-02-17 03:02:00,42.3,31.7,29.26,SE,145,4.9,5.4,66,0.00,,---,0.00,VWS V14.01,2013-02-17 11:02:00,
2013-02-17 03:07:00,42.8,32.6,29.26,SSE,160,4.5,5.4,67,0.00,,---,0.00,VWS V14.01,2013-02-17 11:07:00,
2013-02-17 03:12:00,42.6,32.1,29.26,SSE,158,4.0,4.5,66,0.00,,---,0.00,VWS V14.01,2013-02-17 11:12:00,
2013-02-17 03:17:00,42.4,31.9,29.26,SSE,151,3.6,4.9,66,0.00,,---,0.00,VWS V14.01,2013-02-17 11:17:00,
2013-02-17 03:22:00,42.1,30.8,29.26,SSE,151,2.7,3.6,64,0.00,,---,0.00,VWS V14.01,2013-02-17 11:22:00,
2013-02-17 03:27:00,41.5,29.9,29.26,SSE,151,0.0,0.0,63,0.00,,---,0.00,VWS V14.01,2013-02-17 11:27:00,
2013-02-17 03:32:00,40.6,28.6,29.26,SSE,151,0.0,0.0,62,0.00,,---,0.00,VWS V14.01,2013-02-17 11:32:00,
2013-02-17 03:37:00,39.6,27.2,29.26,SSE,151,0.0,0.0,61,0.00,,---,0.00,VWS V14.01,2013-02-17 11:37:00,
2013-02-17 03:42:00,38.8,26.2,29.26,SSE,151,0.0,0.0,60,0.00,,---,0.00,VWS V14.01,2013-02-17 11:42:00,
2013-02-17 03:47:00,40.5,29.6,29.26,SSE,151,0.0,0.0,65,0.00,,---,0.00,VWS V14.01,2013-02-17 11:47:00,
2013-02-17 03:52:00,41.7,33.0,29.26,SE,132,3.6,4.0,71,0.00,,---,0.00,VWS V14.01,2013-02-17 11:52:00,
2013-02-17 03:57:00,41.5,33.2,29.26,SE,128,3.1,3.6,72,0.00,,---,0.00,VWS V14.01,2013-02-17 11:57:00,
2013-02-17 04:02:00,41.4,33.0,29.26,SE,128,0.0,0.0,72,0.00,,---,0.00,VWS V14.01,2013-02-17 12:02:00,
2013-02-17 04:07:00,41.7,33.7,29.26,SE,128,0.0,0.0,73,0.00,,---,0.00,VWS V14.01,2013-02-17 12:07:00,
2013-02-17 04:12:00,41.7,34.1,29.26,SE,128,0.0,0.0,74,0.00,,---,0.00,VWS V14.01,2013-02-17 12:12:00,
2013-02-17 04:17:00,41.5,33.9,29.26,SE,128,0.0,0.0,74,0.00,,---,0.00,VWS V14.01,2013-02-17 12:17:00,
2013-02-17 04:22:00,39.4,31.5,29.26,SE,128,0.0,2.7,73,0.00,,---,0.00,VWS V14.01,2013-02-17 12:22:00,
2013-02-17 04:27:00,38.5,30.2,29.26,SE,128,3.1,3.1,72,0.00,,---,0.00,VWS V14.01,2013-02-17 12:27:00,
2013-02-17 04:32:00,38.1,29.9,29.26,SE,128,0.0,0.0,72,0.00,,---,0.00,VWS V14.01,2013-02-17 12:32:00,
2013-02-17 04:37:00,36.9,28.0,29.26,SE,128,0.0,0.0,70,0.00,,---,0.00,VWS V14.01,2013-02-17 12:37:00,
2013-02-17 04:42:00,36.5,28.0,29.26,SE,128,0.0,0.0,71,0.00,,---,0.00,VWS V14.01,2013-02-17 12:42:00,
2013-02-17 04:47:00,36.7,28.2,29.26,SE,128,0.0,0.0,71,0.00,,---,0.00,VWS V14.01,2013-02-17 12:47:00,
2013-02-17 04:52:00,38.7,31.1,29.26,ESE,117,3.1,4.9,74,0.00,,---,0.00,VWS V14.01,2013-02-17 12:52:00,
2013-02-17 04:57:00,39.7,32.8,29.26,ESE,107,2.7,4.0,76,0.00,,---,0.00,VWS V14.01,2013-02-17 12:57:00,
2013-02-17 05:02:00,41.5,35.2,29.26,ESE,123,4.5,4.5,78,0.00,,---,0.00,VWS V14.01,2013-02-17 13:02:00,
2013-02-17 05:07:00,42.4,36.4,29.26,SE,132,4.0,4.0,79,0.00,,---,0.00,VWS V14.01,2013-02-17 13:07:00,
2013-02-17 05:12:00,43.2,37.4,29.26,SE,143,3.6,4.5,80,0.00,,---,0.00,VWS V14.01,2013-02-17 13:12:00,
2013-02-17 05:17:00,43.5,37.8,29.26,SE,141,0.0,0.0,80,0.00,,---,0.00,VWS V14.01,2013-02-17 13:17:00,
2013-02-17 05:22:00,43.7,38.0,29.26,SE,133,0.0,0.0,80,0.00,,---,0.00,VWS V14.01,2013-02-17 13:22:00,
2013-02-17 05:28:00,43.7,38.0,29.26,SE,133,0.0,0.0,80,0.00,,---,0.00,VWS V14.01,2013-02-17 13:28:00,
2013-02-17 05:33:00,43.7,38.0,29.29,ESE,121,0.0,0.0,80,0.00,,---,0.00,VWS V14.01,2013-02-17 13:33:00,
2013-02-17 05:38:00,43.7,38.0,29.29,ESE,121,0.0,0.0,80,0.00,,---,0.00,VWS V14.01,2013-02-17 13:38:00,
2013-02-17 05:43:00,43.7,38.0,29.29,SE,134,0.0,0.0,80,0.00,,---,0.00,VWS V14.01,2013-02-17 13:43:00,
2013-02-17 05:48:00,44.1,38.3,29.26,SE,134,0.0,0.0,80,0.00,,---,0.00,VWS V14.01,2013-02-17 13:48:00,
2013-02-17 05:53:00,44.2,38.8,29.26,South,184,0.0,0.0,81,0.00,,---,0.00,VWS V14.01,2013-02-17 13:53:00,
2013-02-17 05:58:00,44.4,39.0,29.26,SSE,166,4.5,4.5,81,0.00,,---,0.00,VWS V14.01,2013-02-17 13:58:00,
2013-02-17 06:03:00,44.6,39.1,29.26,South,173,3.6,4.0,81,0.00,,---,0.00,VWS V14.01,2013-02-17 14:03:00,
2013-02-17 06:08:00,44.6,39.1,29.26,SSE,156,3.6,4.9,81,0.00,,---,0.00,VWS V14.01,2013-02-17 14:08:00,
2013-02-17 06:13:00,44.8,39.3,29.26,SSE,164,4.0,5.4,81,0.00,,---,0.00,VWS V14.01,2013-02-17 14:13:00,
2013-02-17 06:18:00,44.8,39.3,29.26,SSE,154,4.9,6.9,81,0.00,,---,0.00,VWS V14.01,2013-02-17 14:18:00,
2013-02-17 06:23:00,44.8,39.3,29.26,South,169,6.3,6.9,81,0.00,,---,0.00,VWS V14.01,2013-02-17 14:23:00,
2013-02-17 06:28:00,44.8,39.6,29.26,SSE,157,6.9,6.9,82,0.00,,---,0.00,VWS V14.01,2013-02-17 14:28:00,
2013-02-17 06:33:00,45.0,39.8,29.26,SSE,156,5.8,5.8,82,0.00,,---,0.00,VWS V14.01,2013-02-17 14:33:00,
2013-02-17 06:38:00,45.0,39.8,29.26,South,181,6.3,6.9,82,0.00,,---,0.00,VWS V14.01,2013-02-17 14:38:00,
2013-02-17 06:43:00,45.1,40.0,29.26,South,190,4.0,6.3,82,0.00,,---,0.00,VWS V14.01,2013-02-17 14:43:00,
2013-02-17 06:48:00,45.0,39.8,29.29,SSW,194,6.7,6.7,82,0.00,,---,0.00,VWS V14.01,2013-02-17 14:48:00,
2013-02-17 06:53:00,45.1,40.0,29.29,SSW,196,4.5,4.5,82,0.00,,---,0.00,VWS V14.01,2013-02-17 14:53:00,
2013-02-17 06:58:00,45.3,40.2,29.29,SSW,209,5.4,6.7,82,0.00,,---,0.00,VWS V14.01,2013-02-17 14:58:00,
2013-02-17 07:03:00,45.3,40.2,29.29,SSW,196,4.0,4.9,82,0.00,,---,0.00,VWS V14.01,2013-02-17 15:03:00,
2013-02-17 07:08:00,45.5,40.3,29.29,SSW,194,3.6,4.0,82,0.00,,---,0.00,VWS V14.01,2013-02-17 15:08:00,
2013-02-17 07:13:00,45.5,40.3,29.29,South,176,5.8,5.8,82,0.00,,---,0.00,VWS V14.01,2013-02-17 15:13:00,
2013-02-17 07:18:00,45.5,40.0,29.29,South,170,3.6,5.8,81,0.00,,---,0.00,VWS V14.01,2013-02-17 15:18:00,
2013-02-17 07:23:00,45.5,40.0,29.29,South,185,4.5,4.5,81,0.00,,---,0.00,VWS V14.01,2013-02-17 15:23:00,
2013-02-17 07:28:00,45.5,40.0,29.29,South,185,3.1,4.0,81,0.00,,---,0.00,VWS V14.01,2013-02-17 15:28:00,
2013-02-17 07:33:00,45.5,39.7,29.29,SSW,201,4.5,4.5,80,0.00,,---,0.00,VWS V14.01,2013-02-17 15:33:00,
2013-02-17 07:38:00,45.7,39.9,29.29,SW,217,7.4,7.4,80,0.00,,---,0.00,VWS V14.01,2013-02-17 15:38:00,
2013-02-17 07:43:00,46.0,39.9,29.29,WSW,258,6.3,6.9,79,0.00,,---,0.00,VWS V14.01,2013-02-17 15:43:00,
2013-02-17 07:48:00,46.2,39.8,29.29,West,279,4.9,5.4,78,0.00,,---,0.00,VWS V14.01,2013-02-17 15:48:00,
2013-02-17 07:53:00,46.0,39.2,29.29,SW,222,5.8,6.7,77,0.00,,---,0.00,VWS V14.01,2013-02-17 15:53:00,
2013-02-17 07:58:00,45.7,38.2,29.29,SSW,205,6.7,6.7,75,0.00,,---,0.00,VWS V14.01,2013-02-17 15:58:00,
2013-02-17 08:03:00,45.9,36.3,29.29,SSW,211,5.4,6.3,69,0.00,,---,0.00,VWS V14.01,2013-02-17 16:03:00,
2013-02-17 08:08:00,46.0,35.0,29.29,SSW,204,4.5,5.4,65,0.00,,---,0.00,VWS V14.01,2013-02-17 16:08:00,
2013-02-17 08:13:00,46.2,32.3,29.29,SSW,199,4.5,5.4,58,0.00,,---,0.00,VWS V14.01,2013-02-17 16:13:00,
2013-02-17 08:18:00,46.6,31.7,29.29,SW,218,3.1,4.5,56,0.00,,---,0.00,VWS V14.01,2013-02-17 16:18:00,
2013-02-17 08:24:00,47.3,32.8,29.29,SW,221,3.6,4.0,57,0.00,,---,0.00,VWS V14.01,2013-02-17 16:24:00,
2013-02-17 08:29:00,47.7,32.3,29.29,WSW,241,2.7,2.7,55,0.00,,---,0.00,VWS V14.01,2013-02-17 16:29:00,
2013-02-17 08:34:00,48.0,31.2,29.29,SW,232,5.4,5.4,52,0.00,,---,0.00,VWS V14.01,2013-02-17 16:34:00,
2013-02-17 08:39:00,48.4,30.1,29.29,SW,220,3.6,4.9,49,0.00,,---,0.00,VWS V14.01,2013-02-17 16:39:00,
2013-02-17 08:44:00,48.6,29.3,29.29,SW,236,4.5,5.8,47,0.00,,---,0.00,VWS V14.01,2013-02-17 16:44:00,
2013-02-17 08:49:00,48.4,29.1,29.29,SW,219,5.8,6.7,47,0.00,,---,0.00,VWS V14.01,2013-02-17 16:49:00,
2013-02-17 08:55:00,48.6,28.7,29.29,WSW,249,5.4,6.7,46,0.00,,---,0.00,VWS V14.01,2013-02-17 16:55:00,
2013-02-17 09:01:00,48.9,29.1,29.29,SW,230,7.8,7.8,46,0.00,,---,0.00,VWS V14.01,2013-02-17 17:01:00,
2013-02-17 09:06:00,48.7,27.3,29.29,WSW,238,4.9,4.9,43,0.00,,---,0.00,VWS V14.01,2013-02-17 17:06:00,
2013-02-17 09:11:00,49.3,27.8,29.29,WSW,251,6.9,6.9,43,0.00,,---,0.00,VWS V14.01,2013-02-17 17:11:00,
2013-02-17 09:16:00,49.3,27.8,29.29,WSW,251,6.9,6.9,43,0.00,,---,0.00,VWS V14.01,2013-02-17 17:16:00,
2013-02-17 09:21:00,49.5,27.9,29.29,WSW,242,6.7,6.7,43,0.00,,---,0.00,VWS V14.01,2013-02-17 17:21:00,
2013-02-17 09:26:00,49.5,26.8,29.29,SW,222,6.3,6.3,41,0.00,,---,0.00,VWS V14.01,2013-02-17 17:26:00,
2013-02-17 09:31:00,50.5,27.1,29.29,WSW,251,5.8,6.9,40,0.00,,---,0.00,VWS V14.01,2013-02-17 17:31:00,
2013-02-17 09:36:00,50.9,26.8,29.29,West,277,4.9,4.9,39,0.00,,---,0.00,VWS V14.01,2013-02-17 17:36:00,
2013-02-17 09:41:00,51.4,26.7,29.29,WNW,282,3.1,3.1,38,0.00,,---,0.00,VWS V14.01,2013-02-17 17:41:00,
2013-02-17 09:46:00,52.0,27.2,29.29,WNW,284,5.8,5.8,38,0.00,,---,0.00,VWS V14.01,2013-02-17 17:46:00,
2013-02-17 09:51:00,53.6,25.2,29.29,WSW,244,0.0,0.0,33,0.00,,---,0.00,VWS V14.01,2013-02-17 17:51:00,
2013-02-17 09:56:00,53.8,23.9,29.29,WSW,258,4.9,4.9,31,0.00,,---,0.00,VWS V14.01,2013-02-17 17:56:00,
2013-02-17 10:01:00,54.5,24.5,29.29,WSW,255,5.4,5.4,31,0.00,,---,0.00,VWS V14.01,2013-02-17 18:01:00,
2013-02-17 10:06:00,55.0,23.4,29.29,West,259,2.7,4.5,29,0.00,,---,0.00,VWS V14.01,2013-02-17 18:06:00,
2013-02-17 10:11:00,55.2,23.5,29.29,SW,233,0.0,3.6,29,0.00,,---,0.00,VWS V14.01,2013-02-17 18:11:00,
2013-02-17 10:16:00,55.4,22.9,29.29,SSE,168,4.5,7.4,28,0.00,,---,0.00,VWS V14.01,2013-02-17 18:16:00,
2013-02-17 10:21:00,54.9,22.4,29.29,SSE,165,4.5,4.5,28,0.00,,---,0.00,VWS V14.01,2013-02-17 18:21:00,
2013-02-17 10:26:00,55.2,22.7,29.29,South,170,3.1,3.1,28,0.00,,---,0.00,VWS V14.01,2013-02-17 18:26:00,
2013-02-17 10:31:00,56.1,22.6,29.29,WSW,237,5.8,6.3,27,0.00,,---,0.00,VWS V14.01,2013-02-17 18:31:00,
2013-02-17 10:36:00,57.6,23.0,29.29,WSW,246,3.6,4.9,26,0.00,,---,0.00,VWS V14.01,2013-02-17 18:36:00,
2013-02-17 10:41:00,57.4,22.8,29.29,SW,220,0.0,4.5,26,0.00,,---,0.00,VWS V14.01,2013-02-17 18:41:00,
2013-02-17 10:46:00,57.7,22.2,29.29,WNW,303,0.0,4.0,25,0.00,,---,0.00,VWS V14.01,2013-02-17 18:46:00,
2013-02-17 10:51:00,57.7,22.2,29.29,SE,129,2.7,3.1,25,0.00,,---,0.00,VWS V14.01,2013-02-17 18:51:00,
2013-02-17 10:56:00,57.9,22.3,29.29,ESE,108,3.6,4.5,25,0.00,,---,0.00,VWS V14.01,2013-02-17 18:56:00,
2013-02-17 11:01:00,58.5,21.8,29.29,SSE,160,3.1,4.0,24,0.00,,---,0.00,VWS V14.01,2013-02-17 19:01:00,
2013-02-17 11:06:00,59.7,22.9,29.29,WSW,258,0.0,3.6,24,0.00,,---,0.00,VWS V14.01,2013-02-17 19:06:00,
2013-02-17 11:11:00,59.9,23.0,29.29,SW,214,0.0,0.0,24,0.00,,---,0.00,VWS V14.01,2013-02-17 19:11:00,
2013-02-17 11:16:00,59.7,22.9,29.26,North,356,2.7,3.1,24,0.00,,---,0.00,VWS V14.01,2013-02-17 19:16:00,
2013-02-17 11:21:00,60.1,20.0,29.26,NE,50,0.0,0.0,21,0.00,,---,0.00,VWS V14.01,2013-02-17 19:21:00,
2013-02-17 11:26:00,59.9,21.0,29.26,North,10,6.3,8.7,22,0.00,,---,0.00,VWS V14.01,2013-02-17 19:26:00,
2013-02-17 11:31:00,59.0,20.2,29.26,NNE,17,11.0,13.4,22,0.00,,---,0.00,VWS V14.01,2013-02-17 19:31:00,
2013-02-17 11:36:00,59.0,16.8,29.26,NNW,340,6.9,8.7,19,0.00,,---,0.00,VWS V14.01,2013-02-17 19:36:00,
2013-02-17 11:41:00,59.0,16.8,29.26,North,4,8.7,10.5,19,0.00,,---,0.00,VWS V14.01,2013-02-17 19:41:00,
2013-02-17 11:46:00,59.0,16.8,29.26,NNE,13,10.1,10.1,19,0.00,,---,0.00,VWS V14.01,2013-02-17 19:46:00,
2013-02-17 11:51:00,59.0,16.8,29.26,NNE,22,9.2,9.2,19,0.00,,---,0.00,VWS V14.01,2013-02-17 19:51:00,
2013-02-17 11:56:00,59.4,17.1,29.26,North,351,9.2,9.2,19,0.00,,---,0.00,VWS V14.01,2013-02-17 19:56:00,
2013-02-17 12:01:00,59.0,16.8,29.26,NNE,14,6.9,6.9,19,0.00,,---,0.00,VWS V14.01,2013-02-17 20:01:00,
2013-02-17 12:06:00,59.4,17.1,29.26,North,356,11.0,12.5,19,0.00,,---,0.00,VWS V14.01,2013-02-17 20:06:00,
2013-02-17 12:11:00,59.7,17.4,29.26,NNW,331,8.7,11.2,19,0.00,,---,0.00,VWS V14.01,2013-02-17 20:11:00,
2013-02-17 12:16:00,60.4,18.0,29.26,NNW,345,6.9,8.3,19,0.00,,---,0.00,VWS V14.01,2013-02-17 20:16:00,
2013-02-17 12:21:00,59.9,17.6,29.26,NNW,336,7.4,10.1,19,0.00,,---,0.00,VWS V14.01,2013-02-17 20:21:00,
2013-02-17 12:26:00,60.3,17.9,29.26,NNW,346,7.8,9.6,19,0.00,,---,0.00,VWS V14.01,2013-02-17 20:26:00,
2013-02-17 12:31:00,60.6,14.2,29.26,North,2,3.1,3.1,16,0.00,,---,0.00,VWS V14.01,2013-02-17 20:31:00,
2013-02-17 12:36:00,60.4,14.1,29.23,NNW,337,6.7,11.0,16,0.00,,---,0.00,VWS V14.01,2013-02-17 20:36:00,
2013-02-17 12:41:00,61.2,14.6,29.23,North,1,6.9,10.5,16,0.00,,---,0.00,VWS V14.01,2013-02-17 20:41:00,
2013-02-17 12:46:00,61.0,14.5,29.23,NNW,335,5.8,8.7,16,0.00,,---,0.00,VWS V14.01,2013-02-17 20:46:00,
2013-02-17 12:51:00,61.9,15.2,29.23,NNW,330,8.3,8.3,16,0.00,,---,0.00,VWS V14.01,2013-02-17 20:51:00,
2013-02-17 12:56:00,61.9,15.2,29.23,NNW,343,6.7,9.6,16,0.00,,---,0.00,VWS V14.01,2013-02-17 20:56:00,
2013-02-17 13:01:00,61.3,14.8,29.23,NNE,14,9.2,10.1,16,0.00,,---,0.00,VWS V14.01,2013-02-17 21:01:00,
2013-02-17 13:06:00,62.1,15.4,29.23,North,5,10.1,11.6,16,0.00,,---,0.00,VWS V14.01,2013-02-17 21:06:00,
2013-02-17 13:11:00,61.9,15.2,29.23,North,351,11.6,11.6,16,0.00,,---,0.00,VWS V14.01,2013-02-17 21:11:00,
2013-02-17 13:16:00,62.6,15.8,29.23,North,3,5.8,7.4,16,0.00,,---,0.00,VWS V14.01,2013-02-17 21:16:00,
2013-02-17 13:22:00,62.4,15.7,29.23,NNW,342,6.3,6.3,16,0.00,,---,0.00,VWS V14.01,2013-02-17 21:22:00,
2013-02-17 13:27:00,62.4,15.7,29.23,North,351,4.0,4.0,16,0.00,,---,0.00,VWS V14.01,2013-02-17 21:27:00,
2013-02-17 13:32:00,62.1,15.4,29.23,North,6,4.5,4.5,16,0.00,,---,0.00,VWS V14.01,2013-02-17 21:32:00,
2013-02-17 13:37:00,62.8,15.9,29.21,NNW,343,10.1,11.2,16,0.00,,---,0.00,VWS V14.01,2013-02-17 21:37:00,
2013-02-17 13:42:00,62.8,15.9,29.21,NNW,346,8.7,8.7,16,0.00,,---,0.00,VWS V14.01,2013-02-17 21:42:00,
2013-02-17 13:47:00,63.1,16.2,29.21,North,3,5.8,7.8,16,0.00,,---,0.00,VWS V14.01,2013-02-17 21:47:00,
2013-02-17 13:52:00,63.1,16.2,29.21,NE,50,7.8,7.8,16,0.00,,---,0.00,VWS V14.01,2013-02-17 21:52:00,
2013-02-17 13:57:00,63.0,16.1,29.21,NNW,344,11.6,11.6,16,0.00,,---,0.00,VWS V14.01,2013-02-17 21:57:00,
2013-02-17 14:02:00,62.8,15.9,29.21,North,5,7.4,7.4,16,0.00,,---,0.00,VWS V14.01,2013-02-17 22:02:00,
2013-02-17 14:07:00,63.1,16.2,29.21,NNE,33,7.4,9.6,16,0.00,,---,0.00,VWS V14.01,2013-02-17 22:07:00,
2013-02-17 14:12:00,63.1,16.2,29.21,NE,50,4.9,7.4,16,0.00,,---,0.00,VWS V14.01,2013-02-17 22:12:00,
2013-02-17 14:17:00,63.5,15.1,29.21,NNW,347,6.3,6.3,15,0.00,,---,0.00,VWS V14.01,2013-02-17 22:17:00,
2013-02-17 14:22:00,63.7,15.2,29.21,NNW,333,8.3,8.3,15,0.00,,---,0.00,VWS V14.01,2013-02-17 22:22:00,
2013-02-17 14:27:00,63.5,16.5,29.21,NNW,346,8.3,8.3,16,0.00,,---,0.00,VWS V14.01,2013-02-17 22:27:00,
2013-02-17 14:32:00,63.5,16.5,29.21,North,351,8.3,8.3,16,0.00,,---,0.00,VWS V14.01,2013-02-17 22:32:00,
2013-02-17 14:37:00,63.1,16.2,29.21,NNW,342,8.7,8.7,16,0.00,,---,0.00,VWS V14.01,2013-02-17 22:37:00,
2013-02-17 14:42:00,63.1,16.2,29.21,NNW,342,8.7,8.7,16,0.00,,---,0.00,VWS V14.01,2013-02-17 22:42:00,
2013-02-17 14:47:00,63.5,16.5,29.21,NNE,13,7.4,8.7,16,0.00,,---,0.00,VWS V14.01,2013-02-17 22:47:00,
2013-02-17 14:52:00,63.5,16.5,29.21,North,356,8.3,11.0,16,0.00,,---,0.00,VWS V14.01,2013-02-17 22:52:00,
2013-02-17 14:57:00,63.5,16.5,29.21,North,356,7.8,8.7,16,0.00,,---,0.00,VWS V14.01,2013-02-17 22:57:00,
2013-02-17 15:02:00,63.7,15.2,29.21,North,3,8.7,8.7,15,0.00,,---,0.00,VWS V14.01,2013-02-17 23:02:00,
2013-02-17 15:07:00,63.7,15.2,29.21,North,7,6.3,6.9,15,0.00,,---,0.00,VWS V14.01,2013-02-17 23:07:00,
2013-02-17 15:12:00,63.3,16.4,29.21,NNE,23,6.3,8.3,16,0.00,,---,0.00,VWS V14.01,2013-02-17 23:12:00,
2013-02-17 15:17:00,63.7,15.2,29.21,NNE,17,6.7,7.8,15,0.00,,---,0.00,VWS V14.01,2013-02-17 23:17:00,
2013-02-17 15:22:00,63.5,15.1,29.21,NNE,26,8.7,9.2,15,0.00,,---,0.00,VWS V14.01,2013-02-17 23:22:00,
2013-02-17 15:27:00,63.1,16.2,29.21,NNE,18,8.7,10.1,16,0.00,,---,0.00,VWS V14.01,2013-02-17 23:27:00,
2013-02-17 15:32:00,63.1,16.2,29.21,NNE,13,7.4,7.8,16,0.00,,---,0.00,VWS V14.01,2013-02-17 23:32:00,
2013-02-17 15:37:00,63.1,16.2,29.21,North,0,7.4,10.1,16,0.00,,---,0.00,VWS V14.01,2013-02-17 23:37:00,
2013-02-17 15:42:00,63.5,16.5,29.21,North,6,7.8,9.6,16,0.00,,---,0.00,VWS V14.01,2013-02-17 23:42:00,
2013-02-17 15:47:00,62.8,15.9,29.21,NNE,14,6.3,9.2,16,0.00,,---,0.00,VWS V14.01,2013-02-17 23:47:00,
2013-02-17 15:52:00,62.6,15.8,29.21,NNE,29,8.3,10.5,16,0.00,,---,0.00,VWS V14.01,2013-02-17 23:52:00,
2013-02-17 15:57:00,62.6,15.8,29.21,NNE,17,9.2,9.6,16,0.00,,---,0.00,VWS V14.01,2013-02-17 23:57:00,
2013-02-17 16:02:00,62.6,15.8,29.18,NE,52,7.4,9.6,16,0.00,,---,0.00,VWS V14.01,2013-02-18 00:02:00,
2013-02-17 16:07:00,62.6,15.8,29.18,North,5,4.9,6.9,16,0.00,,---,0.00,VWS V14.01,2013-02-18 00:07:00,
2013-02-17 16:12:00,62.8,15.9,29.18,NNE,12,7.4,7.4,16,0.00,,---,0.00,VWS V14.01,2013-02-18 00:12:00,
2013-02-17 16:17:00,62.6,15.8,29.18,NNE,26,7.4,8.7,16,0.00,,---,0.00,VWS V14.01,2013-02-18 00:17:00,
2013-02-17 16:22:00,62.2,15.5,29.18,NNE,19,5.4,6.7,16,0.00,,---,0.00,VWS V14.01,2013-02-18 00:22:00,
2013-02-17 16:27:00,62.1,15.4,29.18,NNE,15,7.4,7.8,16,0.00,,---,0.00,VWS V14.01,2013-02-18 00:27:00,
2013-02-17 16:32:00,61.9,15.2,29.18,North,6,6.7,7.8,16,0.00,,---,0.00,VWS V14.01,2013-02-18 00:32:00,
2013-02-17 16:37:00,61.7,15.1,29.18,North,7,5.8,6.7,16,0.00,,---,0.00,VWS V14.01,2013-02-18 00:37:00,
2013-02-17 16:42:00,61.3,14.8,29.18,NNE,23,8.3,8.3,16,0.00,,---,0.00,VWS V14.01,2013-02-18 00:42:00,
2013-02-17 16:47:00,61.2,14.6,29.18,NE,39,6.7,8.3,16,0.00,,---,0.00,VWS V14.01,2013-02-18 00:47:00,
2013-02-17 16:52:00,61.0,14.5,29.18,NE,38,5.8,8.3,16,0.00,,---,0.00,VWS V14.01,2013-02-18 00:52:00,
2013-02-17 16:57:00,60.4,14.1,29.18,ENE,58,6.3,6.7,16,0.00,,---,0.00,VWS V14.01,2013-02-18 00:57:00,
2013-02-17 17:02:00,59.9,15.0,29.18,NE,51,6.3,6.9,17,0.00,,---,0.00,VWS V14.01,2013-02-18 01:02:00,
2013-02-17 17:07:00,59.4,14.6,29.18,NE,43,7.8,8.3,17,0.00,,---,0.00,VWS V14.01,2013-02-18 01:07:00,
2013-02-17 17:12:00,59.2,14.4,29.18,NE,48,6.7,7.4,17,0.00,,---,0.00,VWS V14.01,2013-02-18 01:12:00,
2013-02-17 17:17:00,58.5,13.8,29.18,NE,36,6.7,6.7,17,0.00,,---,0.00,VWS V14.01,2013-02-18 01:17:00,
2013-02-17 17:22:00,57.7,13.2,29.18,NE,39,6.7,7.4,17,0.00,,---,0.00,VWS V14.01,2013-02-18 01:22:00,
2013-02-17 17:27:00,57.2,12.8,29.18,NE,38,7.4,7.4,17,0.00,,---,0.00,VWS V14.01,2013-02-18 01:27:00,
2013-02-17 17:32:00,56.7,12.4,29.18,NE,42,6.9,7.4,17,0.00,,---,0.00,VWS V14.01,2013-02-18 01:32:00,
2013-02-17 17:37:00,55.6,11.5,29.18,NE,43,6.3,6.7,17,0.00,,---,0.00,VWS V14.01,2013-02-18 01:37:00,
2013-02-17 17:42:00,54.3,11.7,29.18,NE,45,5.4,5.8,18,0.00,,---,0.00,VWS V14.01,2013-02-18 01:42:00,
2013-02-17 17:47:00,54.1,11.6,29.18,NE,37,6.9,6.9,18,0.00,,---,0.00,VWS V14.01,2013-02-18 01:47:00,
2013-02-17 17:52:00,53.8,11.3,29.18,NE,36,4.9,5.8,18,0.00,,---,0.00,VWS V14.01,2013-02-18 01:52:00,
2013-02-17 17:57:00,52.2,10.0,29.18,NW,316,4.5,5.4,18,0.00,,---,0.00,VWS V14.01,2013-02-18 01:57:00,
2013-02-17 18:02:00,51.6,13.0,29.21,NNW,333,3.1,4.0,21,0.00,,---,0.00,VWS V14.01,2013-02-18 02:02:00,
2013-02-17 18:07:00,51.3,12.7,29.21,NNE,23,3.6,4.9,21,0.00,,---,0.00,VWS V14.01,2013-02-18 02:07:00,
2013-02-17 18:12:00,50.4,11.9,29.21,NNE,23,0.0,0.0,21,0.00,,---,0.00,VWS V14.01,2013-02-18 02:12:00,
2013-02-17 18:17:00,50.2,11.8,29.21,NNE,23,0.0,0.0,21,0.00,,---,0.00,VWS V14.01,2013-02-18 02:17:00,
2013-02-17 18:22:00,50.4,11.9,29.21,North,6,0.0,0.0,21,0.00,,---,0.00,VWS V14.01,2013-02-18 02:22:00,
2013-02-17 18:27:00,49.6,11.3,29.21,North,6,0.0,0.0,21,0.00,,---,0.00,VWS V14.01,2013-02-18 02:27:00,
2013-02-17 18:32:00,49.5,11.2,29.21,North,6,0.0,0.0,21,0.00,,---,0.00,VWS V14.01,2013-02-18 02:32:00,
2013-02-17 18:37:00,50.2,14.8,29.21,North,6,0.0,0.0,24,0.00,,---,0.00,VWS V14.01,2013-02-18 02:37:00,
2013-02-17 18:42:00,50.5,15.1,29.21,East,96,2.7,2.7,24,0.00,,---,0.00,VWS V14.01,2013-02-18 02:42:00,
2013-02-17 18:47:00,50.5,15.1,29.21,East,99,3.1,3.6,24,0.00,,---,0.00,VWS V14.01,2013-02-18 02:47:00,
2013-02-17 18:52:00,50.4,14.9,29.21,ESE,113,4.0,4.5,24,0.00,,---,0.00,VWS V14.01,2013-02-18 02:52:00,
2013-02-17 18:57:00,49.6,14.3,29.21,ESE,113,4.5,4.5,24,0.00,,---,0.00,VWS V14.01,2013-02-18 02:57:00,
2013-02-17 19:02:00,49.1,15.7,29.21,ESE,112,3.6,4.0,26,0.00,,---,0.00,VWS V14.01,2013-02-18 03:02:00,
2013-02-17 19:07:00,49.6,16.2,29.21,ESE,121,3.6,3.6,26,0.00,,---,0.00,VWS V14.01,2013-02-18 03:07:00,
2013-02-17 19:12:00,49.3,16.7,29.21,ESE,121,4.0,4.0,27,0.00,,---,0.00,VWS V14.01,2013-02-18 03:12:00,
2013-02-17 19:17:00,48.9,17.3,29.21,ESE,119,3.6,4.0,28,0.00,,---,0.00,VWS V14.01,2013-02-18 03:17:00,
2013-02-17 19:22:00,48.9,17.3,29.21,ESE,119,3.6,4.0,28,0.00,,---,0.00,VWS V14.01,2013-02-18 03:22:00,
2013-02-17 19:27:00,49.3,17.6,29.21,ESE,119,3.1,4.0,28,0.00,,---,0.00,VWS V14.01,2013-02-18 03:27:00,
2013-02-17 19:32:00,49.5,17.7,29.21,ESE,119,3.1,3.1,28,0.00,,---,0.00,VWS V14.01,2013-02-18 03:32:00,
2013-02-17 19:37:00,48.6,17.0,29.21,ESE,119,0.0,0.0,28,0.00,,---,0.00,VWS V14.01,2013-02-18 03:37:00,
2013-02-17 19:42:00,47.1,16.5,29.21,ESE,119,0.0,0.0,29,0.00,,---,0.00,VWS V14.01,2013-02-18 03:42:00,
2013-02-17 19:47:00,46.4,18.2,29.23,ESE,112,3.1,3.6,32,0.00,,---,0.00,VWS V14.01,2013-02-18 03:47:00,
2013-02-17 19:52:00,46.8,19.9,29.23,ESE,110,3.6,4.0,34,0.00,,---,0.00,VWS V14.01,2013-02-18 03:52:00,
2013-02-17 19:57:00,46.4,21.6,29.23,ESE,105,0.0,2.7,37,0.00,,---,0.00,VWS V14.01,2013-02-18 03:57:00,
2013-02-17 20:02:00,46.6,21.7,29.23,ESE,105,3.1,3.6,37,0.00,,---,0.00,VWS V14.01,2013-02-18 04:02:00,
2013-02-17 20:08:00,46.4,21.6,29.23,ESE,105,2.7,3.1,37,0.00,,---,0.00,VWS V14.01,2013-02-18 04:08:00,
2013-02-17 20:13:00,46.2,21.4,29.23,ESE,106,2.7,4.0,37,0.00,,---,0.00,VWS V14.01,2013-02-18 04:13:00,
2013-02-17 20:18:00,46.4,21.6,29.23,ESE,106,3.6,4.0,37,0.00,,---,0.00,VWS V14.01,2013-02-18 04:18:00,
2013-02-17 20:23:00,46.4,21.6,29.23,ESE,106,4.0,4.0,37,0.00,,---,0.00,VWS V14.01,2013-02-18 04:23:00,
2013-02-17 20:28:00,46.0,21.2,29.23,ESE,106,3.1,4.0,37,0.00,,---,0.00,VWS V14.01,2013-02-18 04:28:00,
2013-02-17 20:33:00,45.3,20.6,29.23,East,94,3.1,3.6,37,0.00,,---,0.00,VWS V14.01,2013-02-18 04:33:00,
2013-02-17 20:38:00,44.1,19.5,29.23,East,94,0.0,0.0,37,0.00,,---,0.00,VWS V14.01,2013-02-18 04:38:00,
2013-02-17 20:43:00,43.3,19.5,29.23,East,94,0.0,0.0,38,0.00,,---,0.00,VWS V14.01,2013-02-18 04:43:00,
2013-02-17 20:48:00,43.0,19.1,29.23,East,90,0.0,0.0,38,0.00,,---,0.00,VWS V14.01,2013-02-18 04:48:00,
2013-02-17 20:53:00,41.7,18.0,29.23,ENE,75,0.0,0.0,38,0.00,,---,0.00,VWS V14.01,2013-02-18 04:53:00,
2013-02-17 20:58:00,40.5,18.1,29.23,NNW,344,0.0,0.0,40,0.00,,---,0.00,VWS V14.01,2013-02-18 04:58:00,
2013-02-17 21:00:00,39.9,17.6,29.23,NNW,344,0.0,0.0,40,0.00,,---,0.00,VWS V14.01,2013-02-18 05:00:00,
2013-02-17 21:01:00,39.7,17.4,29.23,NNW,344,0.0,0.0,40,0.00,,---,0.00,VWS V14.01,2013-02-18 05:01:00,
2013-02-17 21:02:00,39.7,18.0,29.23,NNW,344,0.0,0.0,41,0.00,,---,0.00,VWS V14.01,2013-02-18 05:02:00,
2013-02-17 21:07:00,39.6,18.9,29.23,NNW,344,0.0,0.0,43,0.00,,---,0.00,VWS V14.01,2013-02-18 05:07:00,
2013-02-17 21:12:00,39.7,20.1,29.23,NNW,344,0.0,0.0,45,0.00,,---,0.00,VWS V14.01,2013-02-18 05:12:00,
2013-02-17 21:17:00,40.3,22.2,29.23,NNW,344,0.0,0.0,48,0.00,,---,0.00,VWS V14.01,2013-02-18 05:17:00,
2013-02-17 21:22:00,40.5,22.8,29.23,NNW,344,0.0,0.0,49,0.00,,---,0.00,VWS V14.01,2013-02-18 05:22:00,
2013-02-17 21:27:00,41.5,24.8,29.23,NNW,344,0.0,0.0,51,0.00,,---,0.00,VWS V14.01,2013-02-18 05:27:00,
2013-02-17 21:32:00,42.1,25.7,29.23,ENE,72,3.1,3.6,52,0.00,,---,0.00,VWS V14.01,2013-02-18 05:32:00,
2013-02-17 21:37:00,43.3,26.9,29.23,SE,130,4.9,4.9,52,0.00,,---,0.00,VWS V14.01,2013-02-18 05:37:00,
2013-02-17 21:42:00,43.5,25.1,29.23,SE,131,3.6,4.0,48,0.00,,---,0.00,VWS V14.01,2013-02-18 05:42:00,
2013-02-17 21:47:00,44.1,24.1,29.26,SE,130,3.6,3.6,45,0.00,,---,0.00,VWS V14.01,2013-02-18 05:47:00,
2013-02-17 21:52:00,43.3,22.9,29.26,ESE,121,3.1,3.6,44,0.00,,---,0.00,VWS V14.01,2013-02-18 05:52:00,
2013-02-17 21:54:00,43.3,22.9,29.26,ESE,121,3.6,3.6,44,0.00,,---,0.00,VWS V14.01,2013-02-18 05:54:00,
2013-02-17 21:59:00,43.0,23.1,29.26,ESE,121,3.1,3.6,45,0.00,,---,0.00,VWS V14.01,2013-02-18 05:59:00,
2013-02-17 22:04:00,42.6,22.8,29.26,ESE,121,0.0,0.0,45,0.00,,---,0.00,VWS V14.01,2013-02-18 06:04:00,
2013-02-17 22:09:00,41.9,22.6,29.26,ESE,121,0.0,0.0,46,0.00,,---,0.00,VWS V14.01,2013-02-18 06:09:00,
2013-02-17 22:14:00,40.6,20.5,29.26,ESE,121,0.0,0.0,44,0.00,,---,0.00,VWS V14.01,2013-02-18 06:14:00,
2013-02-17 22:19:00,39.9,20.3,29.26,ESE,121,0.0,0.0,45,0.00,,---,0.00,VWS V14.01,2013-02-18 06:19:00,
2013-02-17 22:24:00,41.0,24.3,29.26,ESE,121,0.0,0.0,51,0.00,,---,0.00,VWS V14.01,2013-02-18 06:24:00,
2013-02-17 22:29:00,41.0,25.2,29.26,ESE,121,0.0,0.0,53,0.00,,---,0.00,VWS V14.01,2013-02-18 06:29:00,
2013-02-17 22:34:00,40.5,24.2,29.26,ESE,121,0.0,0.0,52,0.00,,---,0.00,VWS V14.01,2013-02-18 06:34:00,
2013-02-17 22:39:00,40.3,24.5,29.26,ESE,121,3.1,3.6,53,0.00,,---,0.00,VWS V14.01,2013-02-18 06:39:00,
2013-02-17 22:44:00,41.4,27.3,29.26,ESE,121,3.1,3.6,57,0.00,,---,0.00,VWS V14.01,2013-02-18 06:44:00,
2013-02-17 22:49:00,41.4,26.9,29.26,ESE,121,0.0,0.0,56,0.00,,---,0.00,VWS V14.01,2013-02-18 06:49:00,
2013-02-17 22:54:00,40.5,25.1,29.26,ESE,121,0.0,0.0,54,0.00,,---,0.00,VWS V14.01,2013-02-18 06:54:00,
2013-02-17 23:00:00,39.4,23.2,29.26,ESE,121,0.0,0.0,52,0.00,,---,0.00,VWS V14.01,2013-02-18 07:00:00,
2013-02-17 23:05:00,39.4,23.7,29.26,ESE,121,0.0,0.0,53,0.00,,---,0.00,VWS V14.01,2013-02-18 07:05:00,
2013-02-17 23:10:00,39.2,23.5,29.26,ESE,121,0.0,0.0,53,0.00,,---,0.00,VWS V14.01,2013-02-18 07:10:00,
2013-02-17 23:15:00,39.0,23.4,29.26,ESE,121,0.0,0.0,53,0.00,,---,0.00,VWS V14.01,2013-02-18 07:15:00,
2013-02-17 23:20:00,38.3,22.7,29.26,ESE,121,0.0,0.0,53,0.00,,---,0.00,VWS V14.01,2013-02-18 07:20:00,
2013-02-17 23:25:00,38.1,23.0,29.26,ESE,121,0.0,0.0,54,0.00,,---,0.00,VWS V14.01,2013-02-18 07:25:00,
2013-02-17 23:30:00,38.8,24.9,29.26,ESE,121,0.0,0.0,57,0.00,,---,0.00,VWS V14.01,2013-02-18 07:30:00,
2013-02-17 23:35:00,38.7,24.8,29.26,ESE,121,0.0,0.0,57,0.00,,---,0.00,VWS V14.01,2013-02-18 07:35:00,
2013-02-17 23:40:00,38.7,24.8,29.26,ESE,121,0.0,0.0,57,0.00,,---,0.00,VWS V14.01,2013-02-18 07:40:00,
2013-02-17 23:45:00,38.3,24.4,29.26,ESE,121,0.0,0.0,57,0.00,,---,0.00,VWS V14.01,2013-02-18 07:45:00,
2013-02-17 23:50:00,38.5,25.0,29.26,ESE,121,0.0,0.0,58,0.00,,---,0.00,VWS V14.01,2013-02-18 07:50:00,
2013-02-17 23:55:00,39.4,27.5,29.26,ESE,121,4.5,4.5,62,0.00,,---,0.00,VWS V14.01,2013-02-18 07:55:00,